Startpagina
METAR-TAF:

METAR-TAF

Vliegvelden :

Saskatoon, Saskatchewan, Canada

breedte: 52-10N, lengte: 106-41W, hoogte: 501 m

Actueel weer

Dit bericht is 46 minuten geleden gemaakt, om 21:00 UTC
Wind 5 kt uit het noordnoordoosten, variërend tussen het westzuidwesten en het noordoosten
Temperatuur 24°C
Vochtigheid 31%
Druk 1019 hPa
Zicht: 24.1 km
Gebroken wolken op 7000 ft

METAR: CYXE 172100Z 03005KT 250V050 15SM BKN070 24/06 A3008 RMK CU5 SLP197 DENSITY ALT 2900FT

Tijdstip: 15:46 (21:46 UTC)

Verwachting

Dit bericht is 4 uur en het 6 minuten geleden gemaakt, om 17:40 UTC
Verwachting geldig van 17 om 18 UTC tot 18 om 18 UTC
Wind 8 kt uit het westnoordwesten
Zicht: 10 km
Verspreide wolken op 7000 ft
Van 18 om 0200 UTC
Wind 3 kt uit variabele richting
Zicht: 10 km
Onbewolkt

TAF: CYXE 171740Z 1718/1818 30008KT P6SM SCT070 FM180200 VRB03KT P6SM SKC RMK NXT FCST BY 180000Z

Waarnemingen en weersverwachtingen van meer dan 4000 vliegvelden (METAR en TAF).

De beschikbare stations zijn de gele en rode punten op de kaart.

Ga met uw muis naar het station om de naam te zien.

Klik dan om waarnemingen en weersverwachtingen te zien.

kaart wijzigen: klik op de groene knoppen met een zwart kruis om in te zoomen, op de groene knop met een streepje om uit te zoomen of op de groene pijlen voor aangrenzende kaarten.


METAR-TAF: